Time,TemperatureF,DewpointF,PressureIn,WindDirection,WindDirectionDegrees,WindSpeedMPH,WindSpeedGustMPH,Humidity,HourlyPrecipIn,Conditions,Clouds,dailyrainin,SoftwareType,DateUTC
2013-04-24 00:01:00,48.6,43.3,-100.00,WNW,288,0.0,1.0,82,0.00,,,0.00,meteohub,2013-04-24 04:01:00,
2013-04-24 00:06:00,48.6,43.3,-100.00,WNW,286,0.0,1.0,82,0.00,,,0.00,meteohub,2013-04-24 04:06:00,
2013-04-24 00:12:00,48.6,42.6,-100.00,ESE,107,0.0,1.0,80,0.00,,,0.00,meteohub,2013-04-24 04:12:00,
2013-04-24 00:17:00,51.4,40.5,-100.00,East,88,3.0,3.0,66,0.00,,,0.00,meteohub,2013-04-24 04:17:00,
2013-04-24 00:22:00,54.7,40.3,-100.00,East,79,1.0,6.0,58,0.00,,,0.00,meteohub,2013-04-24 04:22:00,
2013-04-24 00:27:00,56.1,39.2,-100.00,South,171,1.0,7.0,53,0.00,,,0.00,meteohub,2013-04-24 04:27:00,
2013-04-24 00:32:00,57.0,39.6,-100.00,ENE,69,3.0,7.0,52,0.00,,,0.00,meteohub,2013-04-24 04:32:00,
2013-04-24 00:37:00,57.4,38.8,-100.00,SSW,196,4.0,8.0,50,0.00,,,0.00,meteohub,2013-04-24 04:37:00,
2013-04-24 00:42:00,57.7,38.1,-100.00,SSW,203,4.0,8.0,48,0.00,,,0.00,meteohub,2013-04-24 04:42:00,
2013-04-24 00:47:00,58.3,38.1,-100.00,SSE,149,5.0,9.0,47,0.00,,,0.00,meteohub,2013-04-24 04:47:00,
2013-04-24 00:52:00,58.6,37.9,-100.00,SSE,168,6.0,9.0,46,0.00,,,0.00,meteohub,2013-04-24 04:52:00,
2013-04-24 00:57:00,58.6,37.9,-100.00,South,184,7.0,9.0,46,0.00,,,0.00,meteohub,2013-04-24 04:57:00,
2013-04-24 01:02:00,58.5,37.8,-100.00,South,180,8.0,9.0,46,0.00,,,0.00,meteohub,2013-04-24 05:02:00,
2013-04-24 01:07:00,58.6,37.4,-100.00,WSW,238,3.0,9.0,45,0.00,,,0.00,meteohub,2013-04-24 05:07:00,
2013-04-24 01:12:00,58.6,37.9,-100.00,South,174,7.0,10.0,46,0.00,,,0.00,meteohub,2013-04-24 05:12:00,
2013-04-24 01:17:00,58.8,37.6,-100.00,South,190,7.0,10.0,45,0.00,,,0.00,meteohub,2013-04-24 05:17:00,
2013-04-24 01:22:00,58.8,37.6,-100.00,SSW,198,5.0,10.0,45,0.00,,,0.00,meteohub,2013-04-24 05:22:00,
2013-04-24 01:27:00,58.8,37.6,-100.00,SSE,148,7.0,11.0,45,0.00,,,0.00,meteohub,2013-04-24 05:27:00,
2013-04-24 01:32:00,58.8,38.1,-100.00,SSE,167,6.0,11.0,46,0.00,,,0.00,meteohub,2013-04-24 05:32:00,
2013-04-24 01:37:00,58.8,38.1,-100.00,South,179,10.0,11.0,46,0.00,,,0.00,meteohub,2013-04-24 05:37:00,
2013-04-24 01:42:00,58.8,38.1,-100.00,SW,221,6.0,11.0,46,0.00,,,0.00,meteohub,2013-04-24 05:42:00,
2013-04-24 01:47:00,58.8,38.1,-100.00,SSW,200,7.0,12.0,46,0.00,,,0.00,meteohub,2013-04-24 05:47:00,
2013-04-24 01:52:00,58.8,38.1,-100.00,SSE,155,4.0,12.0,46,0.00,,,0.00,meteohub,2013-04-24 05:52:00,
2013-04-24 01:57:00,58.5,38.3,-100.00,SSW,207,6.0,12.0,47,0.00,,,0.00,meteohub,2013-04-24 05:57:00,
2013-04-24 02:02:00,58.3,38.7,-100.00,SSW,200,5.0,10.0,48,0.00,,,0.00,meteohub,2013-04-24 06:02:00,
2013-04-24 02:07:00,58.1,38.5,-100.00,South,179,3.0,10.0,48,0.00,,,0.00,meteohub,2013-04-24 06:07:00,
2013-04-24 02:12:00,57.9,38.3,-100.00,SW,221,8.0,11.0,48,0.00,,,0.00,meteohub,2013-04-24 06:12:00,
2013-04-24 02:17:00,57.9,38.3,-100.00,South,174,4.0,11.0,48,0.00,,,0.00,meteohub,2013-04-24 06:17:00,
2013-04-24 02:22:00,57.9,38.8,-100.00,SSE,160,7.0,10.0,49,0.00,,,0.00,meteohub,2013-04-24 06:22:00,
2013-04-24 02:27:00,57.7,38.7,-100.00,SSW,200,5.0,10.0,49,0.00,,,0.00,meteohub,2013-04-24 06:27:00,
2013-04-24 02:32:00,57.7,39.2,-100.00,SSW,204,5.0,10.0,50,0.00,,,0.00,meteohub,2013-04-24 06:32:00,
2013-04-24 02:37:00,57.6,39.0,-100.00,SW,225,8.0,11.0,50,0.00,,,0.00,meteohub,2013-04-24 06:37:00,
2013-04-24 02:42:00,57.6,39.0,-100.00,SSW,198,7.0,12.0,50,0.00,,,0.00,meteohub,2013-04-24 06:42:00,
2013-04-24 02:47:00,57.7,39.2,-100.00,SW,224,6.0,12.0,50,0.00,,,0.00,meteohub,2013-04-24 06:47:00,
2013-04-24 02:52:00,57.9,39.4,-100.00,WNW,291,3.0,11.0,50,0.00,,,0.00,meteohub,2013-04-24 06:52:00,
2013-04-24 02:57:00,57.9,39.4,-100.00,WNW,286,3.0,11.0,50,0.00,,,0.00,meteohub,2013-04-24 06:57:00,
2013-04-24 03:02:00,57.6,39.6,-100.00,WNW,290,2.0,8.0,51,0.00,,,0.00,meteohub,2013-04-24 07:02:00,
2013-04-24 03:07:00,57.4,39.9,-100.00,West,259,1.0,7.0,52,0.00,,,0.00,meteohub,2013-04-24 07:07:00,
2013-04-24 03:12:00,57.4,39.4,-100.00,West,265,2.0,5.0,51,0.00,,,0.00,meteohub,2013-04-24 07:12:00,
2013-04-24 03:17:00,57.6,39.6,-100.00,West,270,3.0,5.0,51,0.00,,,0.00,meteohub,2013-04-24 07:17:00,
2013-04-24 03:22:00,53.8,39.7,-100.00,West,265,3.0,8.0,59,0.00,,,0.00,meteohub,2013-04-24 07:22:00,
2013-04-24 03:27:00,51.6,39.9,-100.00,West,266,3.0,10.0,64,0.00,,,0.00,meteohub,2013-04-24 07:27:00,
2013-04-24 03:32:00,51.1,39.7,-100.00,WSW,250,0.0,10.0,65,0.00,,,0.00,meteohub,2013-04-24 07:32:00,
2013-04-24 03:37:00,50.9,39.9,-100.00,WSW,258,0.0,9.0,66,0.00,,,0.00,meteohub,2013-04-24 07:37:00,
2013-04-24 03:42:00,50.7,40.1,-100.00,WSW,257,0.0,5.0,67,0.00,,,0.00,meteohub,2013-04-24 07:42:00,
2013-04-24 03:47:00,50.5,40.5,-100.00,SE,129,0.0,2.0,68,0.00,,,0.00,meteohub,2013-04-24 07:47:00,
2013-04-24 03:53:00,50.2,40.5,-100.00,SE,141,0.0,1.0,69,0.00,,,0.00,meteohub,2013-04-24 07:53:00,
2013-04-24 03:58:00,50.2,40.8,-100.00,SE,141,0.0,1.0,70,0.00,,,0.00,meteohub,2013-04-24 07:58:00,
2013-04-24 04:03:00,50.5,40.5,-100.00,ESE,115,0.0,1.0,68,0.00,,,0.00,meteohub,2013-04-24 08:03:00,
2013-04-24 04:08:00,51.3,40.6,-100.00,ESE,116,0.0,1.0,67,0.00,,,0.00,meteohub,2013-04-24 08:08:00,
2013-04-24 04:13:00,51.6,40.6,-100.00,ESE,116,0.0,1.0,66,0.00,,,0.00,meteohub,2013-04-24 08:13:00,
2013-04-24 04:18:00,52.5,40.3,-100.00,ESE,109,1.0,1.0,63,0.00,,,0.00,meteohub,2013-04-24 08:18:00,
2013-04-24 04:23:00,53.2,40.1,-100.00,ESE,109,0.0,1.0,61,0.00,,,0.00,meteohub,2013-04-24 08:23:00,
2013-04-24 04:28:00,54.0,41.2,-100.00,SE,141,0.0,1.0,62,0.00,,,0.00,meteohub,2013-04-24 08:28:00,
2013-04-24 04:33:00,54.0,40.8,-100.00,SE,142,0.0,1.0,61,0.00,,,0.00,meteohub,2013-04-24 08:33:00,
2013-04-24 04:38:00,54.5,40.5,-100.00,WSW,246,0.0,1.0,59,0.00,,,0.00,meteohub,2013-04-24 08:38:00,
2013-04-24 04:43:00,55.0,41.4,-100.00,SW,233,0.0,4.0,60,0.00,,,0.00,meteohub,2013-04-24 08:43:00,
2013-04-24 04:48:00,55.6,41.0,-100.00,WSW,245,1.0,4.0,58,0.00,,,0.00,meteohub,2013-04-24 08:48:00,
2013-04-24 04:53:00,55.8,41.2,-100.00,SSE,168,2.0,5.0,58,0.00,,,0.00,meteohub,2013-04-24 08:53:00,
2013-04-24 04:58:00,55.8,40.8,-100.00,SSW,203,3.0,5.0,57,0.00,,,0.00,meteohub,2013-04-24 08:58:00,
2013-04-24 05:03:00,55.9,41.0,-100.00,South,184,5.0,5.0,57,0.00,,,0.00,meteohub,2013-04-24 09:03:00,
2013-04-24 05:08:00,56.1,40.6,-100.00,East,94,5.0,5.0,56,0.00,,,0.00,meteohub,2013-04-24 09:08:00,
2013-04-24 05:13:00,56.5,40.5,-100.00,South,171,6.0,8.0,55,0.00,,,0.00,meteohub,2013-04-24 09:13:00,
2013-04-24 05:18:00,56.5,41.0,-100.00,SW,214,7.0,8.0,56,0.00,,,0.00,meteohub,2013-04-24 09:18:00,
2013-04-24 05:23:00,56.5,40.5,-100.00,South,188,5.0,9.0,55,0.00,,,0.00,meteohub,2013-04-24 09:23:00,
2013-04-24 05:28:00,56.7,40.6,-100.00,SSW,199,9.0,10.0,55,0.00,,,0.00,meteohub,2013-04-24 09:28:00,
2013-04-24 05:33:00,56.8,40.8,-100.00,SW,222,7.0,12.0,55,0.00,,,0.00,meteohub,2013-04-24 09:33:00,
2013-04-24 05:38:00,56.8,41.4,-100.00,SSW,196,6.0,13.0,56,0.00,,,0.00,meteohub,2013-04-24 09:38:00,
2013-04-24 05:43:00,56.8,41.4,-100.00,SSW,199,4.0,13.0,56,0.00,,,0.00,meteohub,2013-04-24 09:43:00,
2013-04-24 05:48:00,56.7,41.5,-100.00,SSE,167,8.0,13.0,57,0.00,,,0.00,meteohub,2013-04-24 09:48:00,
2013-04-24 05:53:00,56.5,41.9,-100.00,SSE,153,8.0,12.0,58,0.00,,,0.00,meteohub,2013-04-24 09:53:00,
2013-04-24 05:58:00,56.5,42.3,-100.00,SW,230,7.0,13.0,59,0.00,,,0.00,meteohub,2013-04-24 09:58:00,
2013-04-24 06:03:00,56.3,43.0,-100.00,SW,225,9.0,13.0,61,0.00,,,0.00,meteohub,2013-04-24 10:03:00,
2013-04-24 06:08:00,55.8,43.3,-100.00,SW,229,7.0,13.0,63,0.00,,,0.00,meteohub,2013-04-24 10:08:00,
2013-04-24 06:13:00,55.2,44.4,-100.00,South,189,7.0,13.0,67,0.00,,,0.00,meteohub,2013-04-24 10:13:00,
2013-04-24 06:18:00,54.7,44.8,-100.00,SW,216,6.0,13.0,69,0.00,,,0.00,meteohub,2013-04-24 10:18:00,
2013-04-24 06:23:00,54.0,44.4,-100.00,South,185,6.0,13.0,70,0.00,,,0.00,meteohub,2013-04-24 10:23:00,
2013-04-24 06:28:00,53.6,44.8,-100.00,SSE,167,7.0,13.0,72,0.00,,,0.00,meteohub,2013-04-24 10:28:00,
2013-04-24 06:33:00,53.2,44.8,-100.00,SSW,204,7.0,13.0,73,0.00,,,0.00,meteohub,2013-04-24 10:33:00,
2013-04-24 06:38:00,53.2,44.8,-100.00,SW,229,8.0,10.0,73,0.01,,,0.01,meteohub,2013-04-24 10:38:00,
2013-04-24 06:43:00,53.2,44.8,-100.00,SW,218,9.0,11.0,73,0.01,,,0.01,meteohub,2013-04-24 10:43:00,
2013-04-24 06:48:00,53.6,44.8,-100.00,ENE,63,4.0,12.0,72,0.01,,,0.01,meteohub,2013-04-24 10:48:00,
2013-04-24 06:53:00,53.6,44.4,-100.00,South,188,4.0,12.0,71,0.01,,,0.01,meteohub,2013-04-24 10:53:00,
2013-04-24 06:58:00,53.4,44.6,-100.00,East,88,2.0,12.0,72,0.01,,,0.01,meteohub,2013-04-24 10:58:00,
2013-04-24 07:03:00,53.6,44.4,-100.00,East,100,2.0,11.0,71,0.01,,,0.01,meteohub,2013-04-24 11:03:00,
2013-04-24 07:08:00,53.6,44.4,-100.00,South,188,7.0,11.0,71,0.01,,,0.01,meteohub,2013-04-24 11:08:00,
2013-04-24 07:13:00,53.6,44.4,-100.00,SSE,160,7.0,11.0,71,0.01,,,0.01,meteohub,2013-04-24 11:13:00,
2013-04-24 07:18:00,53.6,44.8,-100.00,WSW,242,7.0,15.0,72,0.01,,,0.01,meteohub,2013-04-24 11:18:00,
2013-04-24 07:24:00,54.0,44.8,-100.00,South,170,5.0,15.0,71,0.01,,,0.01,meteohub,2013-04-24 11:24:00,
2013-04-24 07:29:00,54.1,44.6,-100.00,South,176,6.0,12.0,70,0.01,,,0.01,meteohub,2013-04-24 11:29:00,
2013-04-24 07:34:00,54.5,45.3,-100.00,SSW,203,3.0,12.0,71,0.01,,,0.01,meteohub,2013-04-24 11:34:00,
2013-04-24 07:39:00,54.5,45.0,-100.00,SE,136,5.0,11.0,70,0.00,,,0.01,meteohub,2013-04-24 11:39:00,
2013-04-24 07:44:00,54.9,45.3,-100.00,SSW,209,6.0,11.0,70,0.00,,,0.01,meteohub,2013-04-24 11:44:00,
2013-04-24 07:49:00,55.0,45.5,-100.00,ESE,119,4.0,11.0,70,0.00,,,0.01,meteohub,2013-04-24 11:49:00,
2013-04-24 07:54:00,55.4,45.3,-100.00,SW,214,7.0,11.0,69,0.00,,,0.01,meteohub,2013-04-24 11:54:00,
2013-04-24 07:59:00,55.8,45.3,-100.00,SSW,206,8.0,16.0,68,0.00,,,0.01,meteohub,2013-04-24 11:59:00,
2013-04-24 08:04:00,55.9,45.5,-100.00,South,186,6.0,16.0,68,0.00,,,0.01,meteohub,2013-04-24 12:04:00,
2013-04-24 08:09:00,55.9,45.1,-100.00,SSE,163,7.0,16.0,67,0.00,,,0.01,meteohub,2013-04-24 12:09:00,
2013-04-24 08:14:00,55.9,45.5,-100.00,SSW,192,7.0,11.0,68,0.00,,,0.01,meteohub,2013-04-24 12:14:00,
2013-04-24 08:19:00,56.1,45.7,-100.00,SSE,151,9.0,11.0,68,0.00,,,0.01,meteohub,2013-04-24 12:19:00,
2013-04-24 08:24:00,56.5,45.7,-100.00,SW,219,6.0,15.0,67,0.00,,,0.01,meteohub,2013-04-24 12:24:00,
2013-04-24 08:29:00,56.7,45.9,-100.00,SSW,201,7.0,15.0,67,0.00,,,0.01,meteohub,2013-04-24 12:29:00,
2013-04-24 08:34:00,56.7,46.2,-100.00,SSW,203,4.0,15.0,68,0.00,,,0.01,meteohub,2013-04-24 12:34:00,
2013-04-24 08:39:00,56.8,46.4,-100.00,SW,214,9.0,11.0,68,0.00,,,0.01,meteohub,2013-04-24 12:39:00,
2013-04-24 08:44:00,57.0,46.6,-100.00,South,182,7.0,14.0,68,0.00,,,0.01,meteohub,2013-04-24 12:44:00,
2013-04-24 08:49:00,57.2,46.8,-100.00,SW,229,11.0,14.0,68,0.00,,,0.01,meteohub,2013-04-24 12:49:00,
2013-04-24 08:54:00,57.4,46.9,-100.00,SSW,195,11.0,12.0,68,0.00,,,0.01,meteohub,2013-04-24 12:54:00,
2013-04-24 08:59:00,57.4,46.9,-100.00,SSW,197,10.0,12.0,68,0.00,,,0.01,meteohub,2013-04-24 12:59:00,
2013-04-24 09:04:00,57.6,47.1,-100.00,SSW,193,10.0,12.0,68,0.00,,,0.01,meteohub,2013-04-24 13:04:00,
2013-04-24 09:09:00,57.6,47.1,-100.00,SSE,160,5.0,14.0,68,0.00,,,0.01,meteohub,2013-04-24 13:09:00,
2013-04-24 09:14:00,57.6,47.1,-100.00,SSE,160,7.0,14.0,68,0.00,,,0.01,meteohub,2013-04-24 13:14:00,
2013-04-24 09:19:00,57.6,47.1,-100.00,South,188,6.0,14.0,68,0.00,,,0.01,meteohub,2013-04-24 13:19:00,
2013-04-24 09:24:00,57.7,47.3,-100.00,SSW,204,9.0,11.0,68,0.00,,,0.01,meteohub,2013-04-24 13:24:00,
2013-04-24 09:29:00,57.9,46.9,-100.00,SSW,204,5.0,13.0,67,0.00,,,0.01,meteohub,2013-04-24 13:29:00,
2013-04-24 09:34:00,58.1,47.7,-100.00,South,169,5.0,13.0,68,0.00,,,0.01,meteohub,2013-04-24 13:34:00,
2013-04-24 09:39:00,58.5,47.5,-100.00,SSE,161,9.0,13.0,67,0.00,,,0.01,meteohub,2013-04-24 13:39:00,
2013-04-24 09:44:00,59.0,48.4,-100.00,SSW,196,8.0,14.0,68,0.00,,,0.01,meteohub,2013-04-24 13:44:00,
2013-04-24 09:49:00,59.4,49.1,-100.00,SW,231,10.0,15.0,69,0.00,,,0.01,meteohub,2013-04-24 13:49:00,
2013-04-24 09:54:00,59.5,48.9,-100.00,SSW,194,5.0,15.0,68,0.00,,,0.01,meteohub,2013-04-24 13:54:00,
2013-04-24 09:59:00,59.7,49.5,-100.00,WSW,238,4.0,15.0,69,0.00,,,0.01,meteohub,2013-04-24 13:59:00,
2013-04-24 10:04:00,60.4,50.2,-100.00,SSW,208,7.0,15.0,69,0.00,,,0.01,meteohub,2013-04-24 14:04:00,
2013-04-24 10:09:00,61.2,50.9,-100.00,WSW,248,10.0,15.0,69,0.00,,,0.01,meteohub,2013-04-24 14:09:00,
2013-04-24 10:14:00,61.5,51.3,-100.00,SSE,162,7.0,13.0,69,0.00,,,0.01,meteohub,2013-04-24 14:14:00,
2013-04-24 10:19:00,62.1,51.8,-100.00,SW,221,4.0,13.0,69,0.00,,,0.01,meteohub,2013-04-24 14:19:00,
2013-04-24 10:24:00,62.4,51.8,-100.00,SSW,199,5.0,13.0,68,0.00,,,0.01,meteohub,2013-04-24 14:24:00,
2013-04-24 10:29:00,62.2,51.6,-100.00,SSW,200,3.0,14.0,68,0.00,,,0.01,meteohub,2013-04-24 14:29:00,
2013-04-24 10:34:00,61.9,51.6,-100.00,SW,216,9.0,14.0,69,0.00,,,0.01,meteohub,2013-04-24 14:34:00,
2013-04-24 10:40:00,61.5,51.3,-100.00,SE,132,9.0,14.0,69,0.00,,,0.01,meteohub,2013-04-24 14:40:00,
2013-04-24 10:45:00,61.2,51.3,-100.00,SW,231,4.0,14.0,70,0.00,,,0.01,meteohub,2013-04-24 14:45:00,
2013-04-24 10:50:00,60.8,50.9,-100.00,South,172,9.0,14.0,70,0.00,,,0.01,meteohub,2013-04-24 14:50:00,
2013-04-24 10:55:00,60.6,50.7,-100.00,SSE,156,3.0,14.0,70,0.00,,,0.01,meteohub,2013-04-24 14:55:00,
2013-04-24 11:00:00,60.4,51.1,-100.00,South,169,5.0,13.0,71,0.00,,,0.01,meteohub,2013-04-24 15:00:00,
2013-04-24 11:05:00,60.3,50.9,-100.00,SW,229,10.0,13.0,71,0.00,,,0.01,meteohub,2013-04-24 15:05:00,
2013-04-24 11:10:00,60.3,50.9,-100.00,SSE,155,6.0,13.0,71,0.00,,,0.01,meteohub,2013-04-24 15:10:00,
2013-04-24 11:11:00,60.1,50.7,-100.00,SSW,192,8.0,13.0,71,0.00,,,0.01,meteohub,2013-04-24 15:11:00,
2013-04-24 11:15:00,60.1,51.1,-100.00,SW,231,4.0,13.0,72,0.00,,,0.01,meteohub,2013-04-24 15:15:00,
2013-04-24 11:20:00,59.9,50.9,-100.00,South,176,7.0,12.0,72,0.00,,,0.01,meteohub,2013-04-24 15:20:00,
2013-04-24 11:25:00,59.9,51.3,-100.00,SSE,163,6.0,12.0,73,0.00,,,0.01,meteohub,2013-04-24 15:25:00,
2013-04-24 11:30:00,60.1,51.4,-100.00,SSW,193,9.0,12.0,73,0.00,,,0.01,meteohub,2013-04-24 15:30:00,
2013-04-24 11:35:00,60.3,51.3,-100.00,WSW,253,4.0,11.0,72,0.00,,,0.01,meteohub,2013-04-24 15:35:00,
2013-04-24 11:40:00,60.6,51.6,-100.00,South,185,4.0,12.0,72,0.00,,,0.01,meteohub,2013-04-24 15:40:00,
2013-04-24 11:45:00,61.0,51.4,-100.00,South,172,4.0,12.0,71,0.00,,,0.01,meteohub,2013-04-24 15:45:00,
2013-04-24 11:50:00,61.2,51.3,-100.00,WNW,297,3.0,12.0,70,0.00,,,0.01,meteohub,2013-04-24 15:50:00,
2013-04-24 11:55:00,61.2,51.6,-100.00,West,276,5.0,11.0,71,0.00,,,0.01,meteohub,2013-04-24 15:55:00,
2013-04-24 12:00:00,61.0,52.3,-100.00,WNW,288,3.0,11.0,73,0.00,,,0.01,meteohub,2013-04-24 16:00:00,
2013-04-24 12:05:00,61.0,52.7,-100.00,South,185,2.0,11.0,74,0.00,,,0.01,meteohub,2013-04-24 16:05:00,
2013-04-24 12:10:00,61.0,52.7,-100.00,West,262,2.0,11.0,74,0.00,,,0.01,meteohub,2013-04-24 16:10:00,
2013-04-24 12:15:00,61.2,53.6,-100.00,South,182,4.0,11.0,76,0.00,,,0.01,meteohub,2013-04-24 16:15:00,
2013-04-24 12:20:00,61.2,53.6,-100.00,South,174,11.0,11.0,76,0.00,,,0.01,meteohub,2013-04-24 16:20:00,
2013-04-24 12:25:00,61.2,53.6,-100.00,SE,134,4.0,11.0,76,0.00,,,0.01,meteohub,2013-04-24 16:25:00,
2013-04-24 12:30:00,61.0,53.4,-100.00,WSW,252,17.0,17.0,76,0.00,,,0.01,meteohub,2013-04-24 16:30:00,
2013-04-24 12:35:00,60.6,54.1,-100.00,WSW,240,4.0,17.0,79,0.00,,,0.01,meteohub,2013-04-24 16:35:00,
2013-04-24 12:40:00,60.4,54.0,-100.00,West,262,4.0,17.0,79,0.00,,,0.01,meteohub,2013-04-24 16:40:00,
2013-04-24 12:45:00,60.3,54.1,-100.00,West,272,3.0,17.0,80,0.00,,,0.01,meteohub,2013-04-24 16:45:00,
2013-04-24 12:50:00,60.1,54.3,-100.00,WSW,248,3.0,13.0,81,0.00,,,0.01,meteohub,2013-04-24 16:50:00,
2013-04-24 12:55:00,59.7,54.0,-100.00,ENE,71,4.0,13.0,81,0.00,,,0.01,meteohub,2013-04-24 16:55:00,
2013-04-24 13:00:00,59.4,54.1,-100.00,South,188,2.0,15.0,83,0.01,,,0.02,meteohub,2013-04-24 17:00:00,
2013-04-24 13:05:00,59.2,54.3,-100.00,SW,224,8.0,15.0,84,0.02,,,0.03,meteohub,2013-04-24 17:05:00,
2013-04-24 13:10:00,58.6,54.1,-100.00,WNW,287,9.0,15.0,85,0.02,,,0.03,meteohub,2013-04-24 17:10:00,
2013-04-24 13:15:00,58.5,54.0,-100.00,SSW,211,12.0,18.0,85,0.03,,,0.04,meteohub,2013-04-24 17:15:00,
2013-04-24 13:20:00,58.5,54.3,-100.00,WSW,255,7.0,18.0,86,0.04,,,0.05,meteohub,2013-04-24 17:20:00,
2013-04-24 13:25:00,58.3,54.1,-100.00,South,175,3.0,18.0,86,0.04,,,0.05,meteohub,2013-04-24 17:25:00,
2013-04-24 13:30:00,57.9,54.1,-100.00,WSW,240,6.0,15.0,87,0.05,,,0.06,meteohub,2013-04-24 17:30:00,
2013-04-24 13:36:00,57.7,54.1,-100.00,WNW,292,7.0,15.0,88,0.06,,,0.07,meteohub,2013-04-24 17:36:00,
2013-04-24 13:41:00,57.7,54.1,-100.00,East,84,3.0,15.0,88,0.07,,,0.08,meteohub,2013-04-24 17:41:00,
2013-04-24 13:46:00,57.6,54.3,-100.00,SW,229,3.0,10.0,89,0.08,,,0.09,meteohub,2013-04-24 17:46:00,
2013-04-24 13:51:00,57.7,54.5,-100.00,WSW,258,3.0,10.0,89,0.09,,,0.10,meteohub,2013-04-24 17:51:00,
2013-04-24 13:56:00,57.7,54.5,-100.00,West,274,7.0,10.0,89,0.09,,,0.10,meteohub,2013-04-24 17:56:00,
2013-04-24 14:01:00,57.7,54.5,-100.00,West,279,6.0,10.0,89,0.08,,,0.10,meteohub,2013-04-24 18:01:00,
2013-04-24 14:06:00,57.7,54.5,-100.00,WNW,295,3.0,9.0,89,0.07,,,0.10,meteohub,2013-04-24 18:06:00,
2013-04-24 14:11:00,57.7,54.5,-100.00,NE,46,2.0,9.0,89,0.07,,,0.11,meteohub,2013-04-24 18:11:00,
2013-04-24 14:16:00,57.7,54.9,-100.00,SSE,162,2.0,14.0,90,0.07,,,0.11,meteohub,2013-04-24 18:16:00,
2013-04-24 14:21:00,57.9,55.0,-100.00,WSW,238,5.0,14.0,90,0.06,,,0.11,meteohub,2013-04-24 18:21:00,
2013-04-24 14:26:00,58.1,55.2,-100.00,South,175,2.0,14.0,90,0.05,,,0.11,meteohub,2013-04-24 18:26:00,
2013-04-24 14:31:00,58.1,54.9,-100.00,South,186,7.0,8.0,89,0.04,,,0.11,meteohub,2013-04-24 18:31:00,
2013-04-24 14:36:00,57.9,54.7,-100.00,SSW,200,5.0,10.0,89,0.03,,,0.11,meteohub,2013-04-24 18:36:00,
2013-04-24 14:41:00,57.7,54.5,-100.00,WNW,302,7.0,11.0,89,0.02,,,0.11,meteohub,2013-04-24 18:41:00,
2013-04-24 14:46:00,57.4,54.1,-100.00,West,271,5.0,14.0,89,0.03,,,0.12,meteohub,2013-04-24 18:46:00,
2013-04-24 14:51:00,57.2,54.3,-100.00,SSE,166,7.0,14.0,90,0.02,,,0.12,meteohub,2013-04-24 18:51:00,
2013-04-24 14:56:00,57.0,54.1,-100.00,SSW,195,6.0,11.0,90,0.02,,,0.12,meteohub,2013-04-24 18:56:00,
2013-04-24 15:01:00,56.8,54.0,-100.00,South,181,8.0,11.0,90,0.03,,,0.13,meteohub,2013-04-24 19:01:00,
2013-04-24 15:06:00,56.8,54.3,-100.00,SSE,163,10.0,13.0,91,0.04,,,0.14,meteohub,2013-04-24 19:06:00,
2013-04-24 15:11:00,56.7,54.1,-100.00,SW,223,10.0,13.0,91,0.03,,,0.14,meteohub,2013-04-24 19:11:00,
2013-04-24 15:16:00,56.7,54.1,-100.00,South,173,5.0,12.0,91,0.04,,,0.15,meteohub,2013-04-24 19:16:00,
2013-04-24 15:21:00,56.7,54.1,-100.00,SSW,205,6.0,13.0,91,0.04,,,0.15,meteohub,2013-04-24 19:21:00,
2013-04-24 15:26:00,56.7,54.1,-100.00,South,188,4.0,13.0,91,0.04,,,0.15,meteohub,2013-04-24 19:26:00,
2013-04-24 15:31:00,56.7,54.1,-100.00,SSE,155,4.0,13.0,91,0.04,,,0.15,meteohub,2013-04-24 19:31:00,
2013-04-24 15:36:00,56.7,54.1,-100.00,SW,225,8.0,11.0,91,0.05,,,0.16,meteohub,2013-04-24 19:36:00,
2013-04-24 15:41:00,56.7,54.1,-100.00,WSW,258,2.0,12.0,91,0.05,,,0.16,meteohub,2013-04-24 19:41:00,
2013-04-24 15:46:00,56.5,54.1,-100.00,WNW,285,9.0,12.0,92,0.04,,,0.16,meteohub,2013-04-24 19:46:00,
2013-04-24 15:51:00,51.6,47.3,-100.00,WSW,253,10.0,14.0,85,0.05,,,0.17,meteohub,2013-04-24 19:51:00,
2013-04-24 15:56:00,48.9,46.0,-100.00,West,265,6.0,14.0,90,0.05,,,0.17,meteohub,2013-04-24 19:56:00,
2013-04-24 16:01:00,47.8,45.3,-100.00,West,266,6.0,14.0,91,0.05,,,0.18,meteohub,2013-04-24 20:01:00,
2013-04-24 16:06:00,47.1,45.0,-100.00,West,264,8.0,12.0,92,0.04,,,0.18,meteohub,2013-04-24 20:06:00,
2013-04-24 16:11:00,46.8,44.8,-100.00,WSW,251,8.0,12.0,93,0.04,,,0.18,meteohub,2013-04-24 20:11:00,
2013-04-24 16:16:00,46.6,45.0,-100.00,WSW,250,6.0,12.0,94,0.04,,,0.19,meteohub,2013-04-24 20:16:00,
2013-04-24 16:21:00,46.2,44.2,-100.00,West,269,6.0,12.0,93,0.04,,,0.19,meteohub,2013-04-24 20:21:00,
2013-04-24 16:26:00,45.5,43.5,-100.00,West,268,4.0,9.0,93,0.05,,,0.20,meteohub,2013-04-24 20:26:00,
2013-04-24 16:31:00,45.0,43.0,-100.00,WSW,251,4.0,10.0,93,0.04,,,0.20,meteohub,2013-04-24 20:31:00,
2013-04-24 16:36:00,44.8,43.2,-100.00,West,267,5.0,10.0,94,0.04,,,0.20,meteohub,2013-04-24 20:36:00,
2013-04-24 16:41:00,44.8,43.2,-100.00,West,281,8.0,10.0,94,0.04,,,0.20,meteohub,2013-04-24 20:41:00,
2013-04-24 16:46:00,45.0,43.7,-100.00,NW,308,8.0,12.0,95,0.05,,,0.21,meteohub,2013-04-24 20:46:00,
2013-04-24 16:51:00,45.0,43.7,-100.00,West,274,6.0,13.0,95,0.05,,,0.22,meteohub,2013-04-24 20:51:00,
2013-04-24 16:57:00,45.0,43.3,-100.00,West,264,9.0,13.0,94,0.06,,,0.23,meteohub,2013-04-24 20:57:00,
2013-04-24 17:02:00,44.8,43.2,-100.00,WNW,283,7.0,13.0,94,0.07,,,0.25,meteohub,2013-04-24 21:02:00,
2013-04-24 17:07:00,44.8,43.2,-100.00,West,267,6.0,13.0,94,0.08,,,0.26,meteohub,2013-04-24 21:07:00,
2013-04-24 17:12:00,44.4,42.8,-100.00,West,263,7.0,13.0,94,0.10,,,0.28,meteohub,2013-04-24 21:12:00,
2013-04-24 17:17:00,44.4,42.8,-100.00,WNW,283,4.0,13.0,94,0.10,,,0.29,meteohub,2013-04-24 21:17:00,
2013-04-24 17:22:00,44.4,42.8,-100.00,WSW,257,5.0,11.0,94,0.11,,,0.30,meteohub,2013-04-24 21:22:00,
2013-04-24 17:27:00,44.2,42.6,-100.00,West,262,6.0,11.0,94,0.11,,,0.31,meteohub,2013-04-24 21:27:00,
2013-04-24 17:32:00,44.2,42.6,-100.00,WNW,299,5.0,11.0,94,0.12,,,0.32,meteohub,2013-04-24 21:32:00,
2013-04-24 17:37:00,44.4,42.8,-100.00,West,276,6.0,11.0,94,0.13,,,0.33,meteohub,2013-04-24 21:37:00,
2013-04-24 17:42:00,44.4,43.2,-100.00,West,259,5.0,9.0,95,0.13,,,0.34,meteohub,2013-04-24 21:42:00,
2013-04-24 17:47:00,44.4,43.2,-100.00,WNW,290,7.0,9.0,95,0.13,,,0.34,meteohub,2013-04-24 21:47:00,
2013-04-24 17:52:00,44.4,42.8,-100.00,WNW,282,8.0,10.0,94,0.12,,,0.34,meteohub,2013-04-24 21:52:00,
2013-04-24 17:57:00,44.4,42.8,-100.00,WNW,296,7.0,10.0,94,0.11,,,0.35,meteohub,2013-04-24 21:57:00,
2013-04-24 18:02:00,44.2,42.6,-100.00,WNW,282,5.0,10.0,94,0.10,,,0.35,meteohub,2013-04-24 22:02:00,
2013-04-24 18:07:00,44.2,42.6,-100.00,West,262,9.0,10.0,94,0.09,,,0.36,meteohub,2013-04-24 22:07:00,
2013-04-24 18:12:00,44.1,42.4,-100.00,WSW,258,12.0,13.0,94,0.08,,,0.36,meteohub,2013-04-24 22:12:00,
2013-04-24 18:17:00,43.5,41.4,-100.00,WNW,289,10.0,14.0,92,0.08,,,0.37,meteohub,2013-04-24 22:17:00,
2013-04-24 18:22:00,43.2,41.0,-100.00,West,272,8.0,15.0,92,0.07,,,0.37,meteohub,2013-04-24 22:22:00,
2013-04-24 18:27:00,42.8,40.6,-100.00,WSW,255,8.0,17.0,92,0.06,,,0.37,meteohub,2013-04-24 22:27:00,
2013-04-24 18:32:00,42.4,39.9,-100.00,WSW,251,10.0,17.0,91,0.06,,,0.38,meteohub,2013-04-24 22:32:00,
2013-04-24 18:37:00,42.3,39.7,-100.00,West,262,7.0,17.0,91,0.05,,,0.38,meteohub,2013-04-24 22:37:00,
2013-04-24 18:42:00,42.1,39.6,-100.00,WNW,295,6.0,17.0,91,0.04,,,0.38,meteohub,2013-04-24 22:42:00,
2013-04-24 18:47:00,42.1,39.9,-100.00,West,274,9.0,16.0,92,0.04,,,0.38,meteohub,2013-04-24 22:47:00,
2013-04-24 18:52:00,42.1,39.9,-100.00,West,278,7.0,15.0,92,0.05,,,0.39,meteohub,2013-04-24 22:52:00,
2013-04-24 18:58:00,41.9,39.4,-100.00,WNW,290,7.0,13.0,91,0.04,,,0.39,meteohub,2013-04-24 22:58:00,
2013-04-24 19:03:00,41.7,39.0,-100.00,West,269,8.0,13.0,90,0.03,,,0.39,meteohub,2013-04-24 23:03:00,
2013-04-24 19:08:00,41.7,39.0,-100.00,West,280,5.0,12.0,90,0.04,,,0.40,meteohub,2013-04-24 23:08:00,
2013-04-24 19:13:00,41.7,39.0,-100.00,West,264,9.0,13.0,90,0.04,,,0.40,meteohub,2013-04-24 23:13:00,
2013-04-24 19:18:00,41.7,39.0,-100.00,WNW,298,6.0,13.0,90,0.03,,,0.40,meteohub,2013-04-24 23:18:00,
2013-04-24 19:23:00,41.7,39.0,-100.00,WNW,300,6.0,13.0,90,0.03,,,0.40,meteohub,2013-04-24 23:23:00,
2013-04-24 19:28:00,41.5,38.5,-100.00,WNW,300,7.0,14.0,89,0.04,,,0.41,meteohub,2013-04-24 23:28:00,
2013-04-24 19:33:00,41.4,38.3,-100.00,WNW,293,9.0,14.0,89,0.03,,,0.41,meteohub,2013-04-24 23:33:00,
2013-04-24 19:38:00,41.2,37.9,-100.00,West,272,10.0,14.0,88,0.04,,,0.42,meteohub,2013-04-24 23:38:00,
2013-04-24 19:43:00,41.0,37.4,-100.00,WSW,253,10.0,13.0,87,0.05,,,0.43,meteohub,2013-04-24 23:43:00,
2013-04-24 19:48:00,40.8,37.6,-100.00,West,275,5.0,13.0,88,0.04,,,0.43,meteohub,2013-04-24 23:48:00,
2013-04-24 19:53:00,40.8,37.8,-100.00,West,274,4.0,13.0,89,0.04,,,0.43,meteohub,2013-04-24 23:53:00,
2013-04-24 19:58:00,40.8,37.6,-100.00,WNW,283,7.0,13.0,88,0.05,,,0.44,meteohub,2013-04-24 23:58:00,
2013-04-24 20:03:00,40.6,37.4,-100.00,West,280,10.0,11.0,88,0.04,,,0.44,meteohub,2013-04-25 00:03:00,
2013-04-24 20:08:00,40.6,37.4,-100.00,WNW,291,4.0,11.0,88,0.04,,,0.44,meteohub,2013-04-25 00:08:00,
2013-04-24 20:13:00,40.5,36.9,-100.00,WNW,285,9.0,13.0,87,0.05,,,0.44,meteohub,2013-04-25 00:13:00,
2013-04-24 20:18:00,40.5,37.2,-100.00,WSW,250,7.0,13.0,88,0.05,,,0.45,meteohub,2013-04-25 00:18:00,
2013-04-24 20:23:00,40.5,36.9,-100.00,West,259,6.0,12.0,87,0.05,,,0.45,meteohub,2013-04-25 00:23:00,
2013-04-24 20:28:00,40.3,36.5,-100.00,West,266,15.0,15.0,86,0.04,,,0.45,meteohub,2013-04-25 00:28:00,
2013-04-24 20:33:00,40.1,36.0,-100.00,West,277,9.0,14.0,85,0.04,,,0.45,meteohub,2013-04-25 00:33:00,
2013-04-24 20:38:00,39.9,36.1,-100.00,WNW,297,8.0,16.0,86,0.03,,,0.45,meteohub,2013-04-25 00:38:00,
2013-04-24 20:43:00,39.9,36.1,-100.00,WNW,293,6.0,16.0,86,0.02,,,0.45,meteohub,2013-04-25 00:43:00,
2013-04-24 20:48:00,39.9,35.8,-100.00,West,278,7.0,16.0,85,0.02,,,0.45,meteohub,2013-04-25 00:48:00,
2013-04-24 20:53:00,39.9,35.4,-100.00,West,279,12.0,13.0,84,0.02,,,0.45,meteohub,2013-04-25 00:53:00,
2013-04-24 20:58:00,39.9,35.2,-100.00,WNW,292,11.0,13.0,83,0.01,,,0.45,meteohub,2013-04-25 00:58:00,
2013-04-24 21:03:00,39.9,35.2,-100.00,West,281,14.0,16.0,83,0.01,,,0.45,meteohub,2013-04-25 01:03:00,
2013-04-24 21:08:00,39.9,35.4,-100.00,WNW,283,13.0,16.0,84,0.01,,,0.45,meteohub,2013-04-25 01:08:00,
2013-04-24 21:13:00,39.9,35.4,-100.00,WNW,291,3.0,16.0,84,0.00,,,0.45,meteohub,2013-04-25 01:13:00,
2013-04-24 21:18:00,39.9,35.2,-100.00,WNW,283,10.0,16.0,83,0.00,,,0.45,meteohub,2013-04-25 01:18:00,
2013-04-24 21:23:00,39.9,35.2,-100.00,WSW,256,6.0,13.0,83,0.00,,,0.45,meteohub,2013-04-25 01:23:00,
2013-04-24 21:28:00,39.9,35.2,-100.00,NW,311,4.0,12.0,83,0.00,,,0.45,meteohub,2013-04-25 01:28:00,
2013-04-24 21:33:00,39.9,35.2,-100.00,WSW,248,7.0,12.0,83,0.00,,,0.45,meteohub,2013-04-25 01:33:00,
2013-04-24 21:38:00,39.9,34.5,-100.00,West,273,10.0,12.0,81,0.00,,,0.45,meteohub,2013-04-25 01:38:00,
2013-04-24 21:44:00,39.9,34.9,-100.00,WNW,283,7.0,15.0,82,0.00,,,0.45,meteohub,2013-04-25 01:44:00,
2013-04-24 21:49:00,39.9,34.9,-100.00,West,267,11.0,15.0,82,0.00,,,0.45,meteohub,2013-04-25 01:49:00,
2013-04-24 21:54:00,39.9,34.9,-100.00,WNW,288,14.0,14.0,82,0.00,,,0.45,meteohub,2013-04-25 01:54:00,
2013-04-24 21:59:00,39.7,34.3,-100.00,WSW,252,5.0,14.0,81,0.00,,,0.45,meteohub,2013-04-25 01:59:00,
2013-04-24 22:04:00,39.6,34.5,-100.00,WSW,254,7.0,14.0,82,0.00,,,0.45,meteohub,2013-04-25 02:04:00,
2013-04-24 22:09:00,39.6,34.5,-100.00,West,272,6.0,14.0,82,0.00,,,0.45,meteohub,2013-04-25 02:09:00,
2013-04-24 22:14:00,39.6,34.9,-100.00,WNW,293,6.0,12.0,83,0.00,,,0.45,meteohub,2013-04-25 02:14:00,
2013-04-24 22:19:00,39.6,34.9,-100.00,WNW,287,5.0,12.0,83,0.00,,,0.45,meteohub,2013-04-25 02:19:00,
2013-04-24 22:24:00,39.4,34.9,-100.00,West,278,6.0,10.0,84,0.00,,,0.45,meteohub,2013-04-25 02:24:00,
2013-04-24 22:29:00,39.2,34.7,-100.00,West,278,9.0,11.0,84,0.01,,,0.46,meteohub,2013-04-25 02:29:00,
2013-04-24 22:34:00,39.0,34.9,-100.00,West,266,9.0,14.0,85,0.01,,,0.46,meteohub,2013-04-25 02:34:00,
2013-04-24 22:39:00,38.8,34.7,-100.00,WSW,246,5.0,14.0,85,0.01,,,0.46,meteohub,2013-04-25 02:39:00,
2013-04-24 22:44:00,38.8,34.7,-100.00,WNW,285,7.0,14.0,85,0.01,,,0.46,meteohub,2013-04-25 02:44:00,
2013-04-24 22:49:00,38.8,34.7,-100.00,WNW,291,5.0,11.0,85,0.01,,,0.46,meteohub,2013-04-25 02:49:00,
2013-04-24 22:54:00,38.8,34.7,-100.00,West,266,3.0,8.0,85,0.01,,,0.46,meteohub,2013-04-25 02:54:00,
2013-04-24 22:59:00,38.8,34.3,-100.00,West,274,9.0,11.0,84,0.01,,,0.46,meteohub,2013-04-25 02:59:00,
2013-04-24 23:04:00,38.8,34.7,-100.00,NW,317,5.0,11.0,85,0.01,,,0.46,meteohub,2013-04-25 03:04:00,
2013-04-24 23:09:00,38.8,34.2,-100.00,West,269,7.0,11.0,83,0.01,,,0.46,meteohub,2013-04-25 03:09:00,
2013-04-24 23:14:00,38.8,34.3,-100.00,West,278,3.0,11.0,84,0.01,,,0.46,meteohub,2013-04-25 03:14:00,
2013-04-24 23:19:00,38.8,34.2,-100.00,West,273,2.0,10.0,83,0.01,,,0.46,meteohub,2013-04-25 03:19:00,
2013-04-24 23:24:00,38.7,34.0,-100.00,WNW,297,4.0,11.0,83,0.01,,,0.46,meteohub,2013-04-25 03:24:00,
2013-04-24 23:29:00,38.7,33.6,-100.00,NW,304,3.0,11.0,82,0.00,,,0.46,meteohub,2013-04-25 03:29:00,
2013-04-24 23:34:00,38.7,33.6,-100.00,WSW,245,2.0,11.0,82,0.00,,,0.46,meteohub,2013-04-25 03:34:00,
2013-04-24 23:39:00,38.5,33.4,-100.00,West,271,4.0,11.0,82,0.00,,,0.46,meteohub,2013-04-25 03:39:00,
2013-04-24 23:45:00,38.5,33.1,-100.00,WSW,255,5.0,11.0,81,0.00,,,0.46,meteohub,2013-04-25 03:45:00,
2013-04-24 23:50:00,38.5,33.4,-100.00,WNW,290,4.0,11.0,82,0.00,,,0.46,meteohub,2013-04-25 03:50:00,
2013-04-24 23:55:00,38.5,33.4,-100.00,NW,307,5.0,10.0,82,0.00,,,0.46,meteohub,2013-04-25 03:55:00,